Time;durP1;ratioP1;P1;durP2;ratioP2;P2;SDS_P1;SDS_P2;PMS_P1;PMS_P2;Temp;Humidity;BMP_temperature;BMP_pressure;BME280_temperature;BME280_humidity;BME280_pressure;Samples;Min_cycle;Max_cycle;Signal;HPM_P1;HPM_P2
2021/07/16 00:02:24;;;;;;;18.08;10.95;;;;;;;21.64;100.00;99091.81;4822327;29;20074;-47
2021/07/16 00:04:51;;;;;;;18.50;11.73;;;;;;;21.61;100.00;99084.16;4827327;29;20521;-49
2021/07/16 00:07:17;;;;;;;18.10;10.95;;;;;;;21.57;100.00;99090.66;4813193;29;20042;-48
2021/07/16 00:09:44;;;;;;;14.70;11.05;;;;;;;21.55;100.00;99077.59;4817503;29;20061;-49
2021/07/16 00:12:10;;;;;;;16.65;10.85;;;;;;;21.55;100.00;99079.41;4802849;29;20047;-49
2021/07/16 00:14:35;;;;;;;15.30;11.30;;;;;;;21.58;100.00;99078.28;4812528;29;20511;-47
2021/07/16 00:17:01;;;;;;;15.18;11.07;;;;;;;21.54;100.00;99078.56;4812519;29;20038;-47
2021/07/16 00:19:27;;;;;;;14.20;10.70;;;;;;;21.54;100.00;99086.50;4811415;29;20046;-54
2021/07/16 00:21:53;;;;;;;17.80;11.68;;;;;;;21.53;100.00;99087.47;4804358;29;20051;-48
2021/07/16 00:24:19;;;;;;;15.43;11.43;;;;;;;21.52;100.00;99084.94;4808896;29;20042;-48
2021/07/16 00:26:46;;;;;;;16.73;10.45;;;;;;;21.49;100.00;99072.84;4803408;29;20046;-48
2021/07/16 00:29:15;;;;;;;16.38;11.48;;;;;;;21.50;100.00;99068.41;4803848;29;20057;-48
2021/07/16 00:31:41;;;;;;;15.75;11.88;;;;;;;21.48;100.00;99073.81;4803731;29;20492;-48
2021/07/16 00:34:06;;;;;;;15.35;10.52;;;;;;;21.48;100.00;99080.91;4803429;29;20146;-48
2021/07/16 00:36:32;;;;;;;15.23;11.23;;;;;;;21.47;100.00;99079.22;4803578;29;20057;-47
2021/07/16 00:38:58;;;;;;;14.63;11.40;;;;;;;21.44;100.00;99072.41;4804647;29;20050;-48
2021/07/16 00:41:24;;;;;;;14.45;11.07;;;;;;;21.46;100.00;99082.84;4803859;29;20051;-48
2021/07/16 00:44:01;;;;;;;15.55;11.13;;;;;;;21.43;100.00;99076.03;4802167;29;20058;-47
2021/07/16 00:46:27;;;;;;;15.18;11.32;;;;;;;21.42;100.00;99071.72;4805400;29;20051;-48
2021/07/16 00:48:56;;;;;;;16.13;11.93;;;;;;;21.41;100.00;99071.84;4803961;29;20051;-48
2021/07/16 00:51:22;;;;;;;13.40;10.48;;;;;;;21.40;100.00;99068.38;4803326;29;20070;-52
2021/07/16 00:53:48;;;;;;;17.10;12.23;;;;;;;21.39;100.00;99065.88;4803813;29;20473;-48
2021/07/16 00:56:13;;;;;;;17.48;11.43;;;;;;;21.37;100.00;99070.44;4810782;29;20049;-50
2021/07/16 00:58:39;;;;;;;18.27;11.68;;;;;;;21.34;100.00;99068.06;4802375;29;20487;-48
2021/07/16 01:01:06;;;;;;;15.45;11.90;;;;;;;21.33;100.00;99071.69;4804347;29;20070;-47
2021/07/16 01:03:31;;;;;;;24.73;12.90;;;;;;;21.31;100.00;99077.09;4806939;29;20043;-46
2021/07/16 01:06:00;;;;;;;19.92;13.05;;;;;;;21.27;100.00;99072.22;4808037;29;20111;-49
2021/07/16 01:08:26;;;;;;;19.75;12.27;;;;;;;21.26;100.00;99071.38;5275013;23;20039;-47
2021/07/16 01:10:51;;;;;;;17.15;13.48;;;;;;;21.23;100.00;99071.66;4838621;29;20521;-47
2021/07/16 01:13:17;;;;;;;18.80;12.95;;;;;;;21.22;100.00;99070.00;4821637;29;20512;-48
2021/07/16 01:15:43;;;;;;;20.90;12.10;;;;;;;21.22;100.00;99071.78;4834219;29;20546;-49
2021/07/16 01:18:08;;;;;;;21.30;12.68;;;;;;;21.21;100.00;99064.81;4845544;29;20459;-53
2021/07/16 01:20:34;;;;;;;18.15;12.35;;;;;;;21.21;100.00;99070.94;4823101;29;20046;-48
2021/07/16 01:23:01;;;;;;;20.05;11.43;;;;;;;21.21;100.00;99067.47;4838009;29;20088;-48
2021/07/16 01:25:31;;;;;;;13.90;11.45;;;;;;;21.22;100.00;99064.69;4842720;29;20046;-48
2021/07/16 01:28:01;;;;;;;17.67;12.40;;;;;;;21.22;100.00;99062.06;4842959;29;20245;-47
2021/07/16 01:30:33;;;;;;;22.08;13.48;;;;;;;21.22;100.00;99061.22;4842753;29;20041;-50
2021/07/16 01:33:01;;;;;;;21.60;13.07;;;;;;;21.23;100.00;99060.25;4842789;29;20133;-47
2021/07/16 01:35:27;;;;;;;23.80;14.07;;;;;;;21.24;100.00;99062.78;4843883;29;20045;-48
2021/07/16 01:37:53;;;;;;;22.15;14.30;;;;;;;21.24;100.00;99065.41;4843366;29;20037;-49
2021/07/16 01:40:20;;;;;;;27.92;15.75;;;;;;;21.24;100.00;99067.22;4843084;29;20046;-48
2021/07/16 01:42:52;;;;;;;21.63;12.40;;;;;;;21.26;100.00;99068.75;4842631;29;20046;-48
2021/07/16 01:45:22;;;;;;;19.63;12.10;;;;;;;21.27;100.00;99067.78;4844506;29;20050;-46
2021/07/16 01:47:54;;;;;;;17.15;11.82;;;;;;;21.29;100.00;99062.38;4809215;29;20035;-46
2021/07/16 01:50:20;;;;;;;20.70;12.30;;;;;;;21.31;100.00;99068.31;4834585;29;20048;-49
2021/07/16 01:52:48;;;;;;;15.38;11.07;;;;;;;21.31;100.00;99065.69;4842721;29;20054;-48
2021/07/16 01:55:18;;;;;;;15.52;11.30;;;;;;;21.30;100.00;99069.31;4842265;29;20498;-49
2021/07/16 01:57:55;;;;;;;17.52;11.45;;;;;;;21.30;100.00;99072.78;4851973;29;20048;-48
2021/07/16 02:00:24;;;;;;;18.23;10.95;;;;;;;21.32;100.00;99065.56;4815423;29;20046;-48
2021/07/16 02:02:51;;;;;;;20.98;10.82;;;;;;;21.36;100.00;99061.66;4842707;29;20057;-48
2021/07/16 02:05:21;;;;;;;14.25;10.68;;;;;;;21.36;100.00;99061.66;4842492;29;20057;-48
2021/07/16 02:07:50;;;;;;;16.60;10.68;;;;;;;21.35;100.00;99061.81;4842635;29;20115;-47
2021/07/16 02:10:17;;;;;;;;;;;;;;;21.37;100.00;99065.16;4842007;29;20526;-48
2021/07/16 02:12:43;;;;;;;16.70;10.90;;;;;;;21.36;100.00;99063.47;4841796;29;20316;-48
2021/07/16 02:15:20;;;;;;;16.10;9.73;;;;;;;21.37;100.00;99071.28;4851989;29;20056;-48
2021/07/16 02:17:47;;;;;;;15.27;10.35;;;;;;;21.36;100.00;99064.31;4860651;29;20493;-49
2021/07/16 02:20:27;;;;;;;13.43;10.35;;;;;;;21.37;100.00;99059.84;4844394;29;20049;-47
2021/07/16 02:22:54;;;;;;;20.25;11.25;;;;;;;21.40;100.00;99062.25;4838965;29;20399;-48
2021/07/16 02:25:21;;;;;;;16.35;10.77;;;;;;;21.43;100.00;99057.50;4841158;29;20525;-47
2021/07/16 02:27:49;;;;;;;18.58;10.93;;;;;;;21.44;100.00;99053.91;4842215;29;20046;-47
2021/07/16 02:30:17;;;;;;;16.67;11.48;;;;;;;21.46;100.00;99053.75;4841477;29;20053;-48
2021/07/16 02:32:44;;;;;;;16.60;10.85;;;;;;;21.48;100.00;99052.66;4842280;29;20532;-48
2021/07/16 02:35:11;;;;;;;14.93;10.23;;;;;;;21.50;100.00;99058.66;4858063;29;20041;-47
2021/07/16 02:37:37;;;;;;;17.58;10.32;;;;;;;21.52;100.00;99061.97;4853254;29;20052;-47
2021/07/16 02:40:06;;;;;;;19.08;10.63;;;;;;;21.54;100.00;99057.41;4841103;29;20060;-48
2021/07/16 02:42:32;;;;;;;15.15;11.15;;;;;;;21.56;100.00;99055.44;4841955;29;20044;-47
2021/07/16 02:44:58;;;;;;;19.20;11.00;;;;;;;21.60;100.00;99056.00;4841692;29;20516;-48
2021/07/16 02:47:24;;;;;;;17.70;11.65;;;;;;;21.62;100.00;99053.22;4841025;29;20058;-48
2021/07/16 02:49:50;;;;;;;15.02;9.88;;;;;;;21.66;100.00;99062.56;4841882;29;20429;-48
2021/07/16 02:52:15;;;;;;;15.07;10.48;;;;;;;21.68;100.00;99061.44;4841220;29;20425;-48
2021/07/16 02:54:41;;;;;;;15.88;10.32;;;;;;;21.70;100.00;99067.44;4840147;29;20045;-48
2021/07/16 02:57:06;;;;;;;13.93;10.32;;;;;;;21.75;100.00;99070.50;4841232;29;20414;-47
2021/07/16 02:59:32;;;;;;;14.27;10.05;;;;;;;21.77;100.00;99065.91;4840942;29;20061;-48
2021/07/16 03:01:59;;;;;;;16.13;10.88;;;;;;;21.82;100.00;99070.81;4841866;29;20046;-48
2021/07/16 03:04:25;;;;;;;13.77;10.38;;;;;;;21.85;100.00;99071.34;4859298;29;20509;-47
2021/07/16 03:06:51;;;;;;;16.17;10.48;;;;;;;21.90;100.00;99076.22;4858576;29;20045;-47
2021/07/16 03:09:17;;;;;;;12.43;10.20;;;;;;;21.96;100.00;99078.34;4859508;29;20053;-47
2021/07/16 03:11:43;;;;;;;10.95;9.40;;;;;;;21.98;100.00;99074.56;4847934;29;20129;-47
2021/07/16 03:14:08;;;;;;;13.15;10.40;;;;;;;22.03;100.00;99073.34;4840920;29;20129;-47
2021/07/16 03:16:35;;;;;;;14.18;10.23;;;;;;;22.08;100.00;99084.34;4825117;29;20532;-47
2021/07/16 03:19:01;;;;;;;12.93;10.10;;;;;;;22.12;100.00;99083.09;4840946;29;20054;-51
2021/07/16 03:21:27;;;;;;;15.35;9.80;;;;;;;22.18;100.00;99074.59;4841006;29;20205;-48
2021/07/16 03:23:53;;;;;;;14.43;10.68;;;;;;;22.22;100.00;99074.16;4824180;29;20107;-48
2021/07/16 03:26:18;;;;;;;11.68;9.90;;;;;;;22.26;100.00;99074.69;4840450;29;20089;-48
2021/07/16 03:28:45;;;;;;;14.32;10.00;;;;;;;22.31;100.00;99075.13;4840671;29;20050;-51
2021/07/16 03:31:11;;;;;;;17.20;11.52;;;;;;;22.35;100.00;99073.84;4840082;29;20057;-49
2021/07/16 03:33:37;;;;;;;15.40;11.27;;;;;;;22.38;100.00;99084.19;4841077;29;20048;-47
2021/07/16 03:36:04;;;;;;;21.20;11.55;;;;;;;22.42;100.00;99080.25;4840738;29;20069;-48
2021/07/16 03:38:30;;;;;;;15.80;11.65;;;;;;;22.44;100.00;99080.97;4835877;29;20496;-48
2021/07/16 03:40:58;;;;;;;17.55;10.45;;;;;;;22.48;100.00;99092.09;4847640;29;20069;-48
2021/07/16 03:43:24;;;;;;;13.27;11.23;;;;;;;22.52;100.00;99086.38;4840296;29;20053;-50
2021/07/16 03:45:51;;;;;;;17.45;11.50;;;;;;;22.58;100.00;99090.25;4844520;29;20046;-51
2021/07/16 03:48:17;;;;;;;15.68;10.98;;;;;;;22.61;100.00;99090.81;4859282;29;20063;-50
2021/07/16 03:50:43;;;;;;;16.50;11.15;;;;;;;22.65;99.66;99092.22;4857541;29;20505;-46
2021/07/16 03:53:08;;;;;;;18.77;11.70;;;;;;;22.72;99.39;99097.78;4840187;29;20042;-47
2021/07/16 03:55:34;;;;;;;17.02;10.75;;;;;;;22.78;98.24;99092.75;4840487;29;20358;-47
2021/07/16 03:58:00;;;;;;;15.60;11.68;;;;;;;22.84;97.70;99098.47;4840840;29;20042;-47
2021/07/16 04:00:29;;;;;;;19.85;11.75;;;;;;;22.88;97.36;99100.66;4840324;29;20086;-47
2021/07/16 04:02:56;;;;;;;16.70;11.35;;;;;;;22.92;97.37;99094.13;4840371;29;20509;-47
2021/07/16 04:05:22;;;;;;;19.60;12.27;;;;;;;22.97;97.16;99091.88;4846141;29;20133;-47
2021/07/16 04:07:49;;;;;;;14.18;11.48;;;;;;;23.04;95.84;99097.41;4841674;29;20580;-46
2021/07/16 04:10:17;;;;;;;17.23;11.25;;;;;;;23.09;95.31;99095.16;4839748;29;20068;-47
2021/07/16 04:12:50;;;;;;;19.98;12.20;;;;;;;23.15;94.09;99094.56;4840062;29;20038;-47
2021/07/16 04:15:15;;;;;;;17.35;11.73;;;;;;;23.19;93.58;99087.97;4839612;29;20046;-49
2021/07/16 04:17:41;;;;;;;15.15;10.65;;;;;;;23.27;93.32;99093.41;4840470;29;20102;-48
2021/07/16 04:20:07;;;;;;;30.90;16.40;;;;;;;23.33;93.00;99086.66;4846746;29;20133;-48
2021/07/16 04:22:33;;;;;;;21.00;13.15;;;;;;;23.39;92.57;99097.53;4839858;29;20198;-48
2021/07/16 04:24:59;;;;;;;17.73;11.13;;;;;;;23.47;92.19;99102.13;4840651;29;20042;-48
2021/07/16 04:27:24;;;;;;;18.58;11.38;;;;;;;23.52;91.74;99095.38;4853937;29;20049;-48
2021/07/16 04:29:50;;;;;;;15.32;10.88;;;;;;;23.60;91.00;99099.97;4850963;29;20061;-49
2021/07/16 04:32:16;;;;;;;19.77;11.95;;;;;;;23.68;90.92;99096.53;4844559;29;20045;-49
2021/07/16 04:34:42;;;;;;;17.73;10.57;;;;;;;23.73;90.44;99095.09;4824394;29;20053;-47
2021/07/16 04:37:08;;;;;;;18.42;10.50;;;;;;;23.79;90.15;99094.50;4843427;29;20573;-48
2021/07/16 04:39:35;;;;;;;14.82;10.32;;;;;;;23.86;90.06;99097.41;4853280;29;20037;-48
2021/07/16 04:42:00;;;;;;;14.57;10.43;;;;;;;23.93;88.91;99101.09;4854687;29;20070;-48
2021/07/16 04:44:27;;;;;;;15.82;10.18;;;;;;;24.00;88.08;99100.38;4843251;29;20529;-49
2021/07/16 04:46:53;;;;;;;16.33;10.27;;;;;;;24.08;88.06;99102.25;4842648;29;20570;-45
2021/07/16 04:49:18;;;;;;;13.38;9.75;;;;;;;24.15;88.48;99111.28;4843299;29;20046;-45
2021/07/16 04:51:44;;;;;;;16.13;9.30;;;;;;;24.24;86.20;99109.56;4843796;29;20521;-46
2021/07/16 04:54:14;;;;;;;13.98;9.10;;;;;;;24.32;84.40;99109.63;4848437;29;20042;-44
2021/07/16 04:56:40;;;;;;;20.95;11.27;;;;;;;24.42;82.83;99105.91;4830808;29;20046;-46
2021/07/16 04:59:06;;;;;;;13.85;8.85;;;;;;;24.49;82.05;99114.09;4843615;29;20467;-45
2021/07/16 05:01:31;;;;;;;14.70;9.77;;;;;;;24.61;81.21;99106.69;4843125;29;20082;-46
2021/07/16 05:03:57;;;;;;;18.00;10.07;;;;;;;24.70;80.76;99097.78;4843416;29;20102;-45
2021/07/16 05:06:24;;;;;;;13.20;9.25;;;;;;;24.80;79.79;99103.84;4843441;29;20580;-45
2021/07/16 05:08:50;;;;;;;13.50;10.10;;;;;;;24.83;79.67;99104.34;4843088;29;20093;-45
2021/07/16 05:11:17;;;;;;;16.15;10.10;;;;;;;24.91;79.67;99114.25;4843508;29;20081;-45
2021/07/16 05:13:42;;;;;;;15.77;10.13;;;;;;;24.97;79.52;99113.59;4842873;29;20065;-45
2021/07/16 05:16:11;;;;;;;15.18;9.68;;;;;;;25.05;79.15;99115.47;4835801;29;20514;-45
2021/07/16 05:18:37;;;;;;;16.55;9.88;;;;;;;25.09;79.32;99109.66;4840073;29;20057;-44
2021/07/16 05:21:04;;;;;;;16.17;9.27;;;;;;;25.18;79.34;99121.19;4842551;29;20045;-45
2021/07/16 05:23:30;;;;;;;16.15;9.23;;;;;;;25.26;78.85;99123.91;4824790;29;20093;-46
2021/07/16 05:25:58;;;;;;;14.50;9.75;;;;;;;25.33;77.80;99115.09;4824930;29;20421;-45
2021/07/16 05:28:23;;;;;;;16.02;9.95;;;;;;;25.42;76.95;99121.31;4839160;29;20048;-54
2021/07/16 05:30:49;;;;;;;16.95;9.75;;;;;;;25.50;77.55;99126.66;4850813;29;20058;-50
2021/07/16 05:33:16;;;;;;;14.60;9.50;;;;;;;25.61;77.40;99129.03;4846348;29;20046;-53
2021/07/16 05:35:41;;;;;;;17.38;9.73;;;;;;;25.70;76.67;99117.41;4843300;29;20107;-50
2021/07/16 05:38:08;;;;;;;10.38;8.75;;;;;;;25.82;76.31;99123.28;4842818;29;20045;-52
2021/07/16 05:40:35;;;;;;;18.48;11.45;;;;;;;25.94;74.99;99119.31;4842441;29;20042;-50
2021/07/16 05:43:07;;;;;;;14.18;8.85;;;;;;;26.05;73.66;99123.50;4843185;29;20081;-52
2021/07/16 05:45:35;;;;;;;13.30;8.93;;;;;;;26.15;72.51;99117.00;4842529;29;20064;-53
2021/07/16 05:48:03;;;;;;;12.68;9.32;;;;;;;26.26;72.61;99115.06;4824410;29;20045;-54
2021/07/16 05:50:29;;;;;;;17.77;9.07;;;;;;;26.35;71.90;99122.88;4847492;29;20531;-53
2021/07/16 05:52:54;;;;;;;18.63;10.38;;;;;;;26.47;72.09;99123.38;4849672;29;20062;-54
2021/07/16 05:55:21;;;;;;;15.38;9.70;;;;;;;26.59;72.14;99126.53;4842270;29;20105;-54
2021/07/16 05:57:47;;;;;;;14.18;9.25;;;;;;;26.69;69.89;99127.19;4841022;29;20053;-47
2021/07/16 06:00:13;;;;;;;14.43;10.35;;;;;;;26.80;69.12;99124.16;5323561;23;20065;-48
2021/07/16 06:02:40;;;;;;;10.68;8.43;;;;;;;26.95;69.23;99122.50;4839420;29;20057;-47
2021/07/16 06:05:06;;;;;;;16.30;9.57;;;;;;;27.07;69.33;99126.47;4841386;29;20050;-47
2021/07/16 06:07:32;;;;;;;13.52;9.45;;;;;;;27.15;68.71;99115.78;4841176;29;20429;-46
2021/07/16 06:09:57;;;;;;;12.93;9.43;;;;;;;27.24;67.48;99117.41;4839186;29;20061;-48
2021/07/16 06:12:23;;;;;;;127.57;17.98;;;;;;;27.35;67.75;99105.53;4823081;29;20046;-48
2021/07/16 06:14:55;;;;;;;77.88;18.10;;;;;;;27.48;68.12;99113.78;4823159;29;20047;-47
2021/07/16 06:17:24;;;;;;;29.23;12.02;;;;;;;27.57;68.48;99112.81;4820760;29;20145;-47
2021/07/16 06:19:50;;;;;;;160.10;29.35;;;;;;;27.74;67.80;99113.56;4822138;29;20061;-49
2021/07/16 06:22:16;;;;;;;110.07;19.67;;;;;;;27.90;67.04;99118.75;4823988;29;20050;-48
2021/07/16 06:24:42;;;;;;;45.30;14.07;;;;;;;27.98;66.71;99105.38;4804463;29;20043;-47
2021/07/16 06:27:08;;;;;;;22.30;11.48;;;;;;;28.10;65.34;99108.47;4809877;29;20054;-47
2021/07/16 06:29:35;;;;;;;32.38;11.40;;;;;;;28.27;63.19;99109.19;4805484;29;20050;-48
2021/07/16 06:32:01;;;;;;;209.18;32.78;;;;;;;28.38;62.37;99114.94;4804366;29;20137;-48
2021/07/16 06:34:27;;;;;;;70.47;16.02;;;;;;;28.53;61.22;99113.13;4808019;29;20042;-48
2021/07/16 06:36:53;;;;;;;480.33;67.65;;;;;;;28.72;60.66;99105.63;4815770;29;20170;-50
2021/07/16 06:39:19;;;;;;;17.77;9.98;;;;;;;28.95;59.06;99101.88;4811571;29;20050;-46
2021/07/16 06:41:45;;;;;;;34.28;11.35;;;;;;;29.42;57.94;99100.66;4813851;29;20053;-47
2021/07/16 06:44:10;;;;;;;35.42;11.23;;;;;;;29.97;56.63;99110.84;4805774;29;20057;-47
2021/07/16 06:46:37;;;;;;;63.33;16.52;;;;;;;30.49;55.09;99115.88;4812010;29;20057;-47
2021/07/16 06:49:03;;;;;;;18.75;10.25;;;;;;;30.77;55.25;99109.69;4820618;29;20043;-45
2021/07/16 06:51:30;;;;;;;33.58;13.25;;;;;;;31.75;51.44;99112.94;4822529;29;20070;-49
2021/07/16 06:54:00;;;;;;;289.33;34.58;;;;;;;32.81;49.04;99107.72;4818637;29;20142;-47
2021/07/16 06:56:25;;;;;;;49.35;12.82;;;;;;;33.69;46.59;99115.16;4822218;29;20129;-46
2021/07/16 06:58:52;;;;;;;35.25;12.43;;;;;;;34.54;44.34;99115.66;4820179;29;20144;-46
2021/07/16 07:01:19;;;;;;;14.68;10.27;;;;;;;35.14;41.44;99108.66;4805907;29;20063;-51
2021/07/16 07:03:45;;;;;;;15.95;10.45;;;;;;;35.89;39.64;99106.53;4820487;29;20046;-45
2021/07/16 07:06:11;;;;;;;45.10;14.43;;;;;;;36.62;39.15;99111.69;4822641;29;20467;-46
2021/07/16 07:08:37;;;;;;;18.02;9.73;;;;;;;37.34;36.63;99116.59;4822452;29;20042;-46
2021/07/16 07:11:03;;;;;;;10.27;9.23;;;;;;;38.05;35.04;99115.31;4820157;29;20078;-50
2021/07/16 07:13:29;;;;;;;41.03;15.15;;;;;;;38.72;34.45;99115.38;4817573;29;20050;-46
2021/07/16 07:15:55;;;;;;;10.57;9.55;;;;;;;39.38;33.26;99117.16;4822840;29;20091;-50
2021/07/16 07:18:20;;;;;;;10.52;9.43;;;;;;;39.71;32.10;99118.94;4818213;29;20065;-51
2021/07/16 07:20:51;;;;;;;66.72;11.63;;;;;;;39.95;30.97;99105.03;5273847;23;20048;-49
2021/07/16 07:23:17;;;;;;;12.05;8.90;;;;;;;38.41;33.04;99110.50;4817362;29;20187;-52
2021/07/16 07:25:42;;;;;;;45.90;20.52;;;;;;;37.70;35.23;99103.75;4822771;29;20152;-47
2021/07/16 07:28:08;;;;;;;12.02;9.30;;;;;;;37.58;34.80;99101.09;4819440;29;20087;-51
2021/07/16 07:30:34;;;;;;;8.23;7.40;;;;;;;38.58;33.81;99102.38;4812990;29;20050;-48
2021/07/16 07:32:59;;;;;;;21.13;9.13;;;;;;;37.49;35.37;99101.69;4801273;29;20547;-49
2021/07/16 07:35:25;;;;;;;13.07;9.00;;;;;;;37.20;36.10;99098.94;4809982;29;20149;-50
2021/07/16 07:37:51;;;;;;;751.58;79.63;;;;;;;38.67;33.30;99098.19;4805241;29;20099;-47
2021/07/16 07:40:17;;;;;;;184.50;24.77;;;;;;;37.83;34.40;99099.94;4799984;29;20047;-49
2021/07/16 07:42:46;;;;;;;25.38;9.88;;;;;;;36.54;36.53;99096.56;4797733;29;20108;-49
2021/07/16 07:45:12;;;;;;;18.48;10.10;;;;;;;36.06;37.15;99097.50;4802476;29;20049;-49
2021/07/16 07:47:38;;;;;;;25.40;10.63;;;;;;;37.87;34.67;99099.22;4802187;29;20051;-48
2021/07/16 07:50:09;;;;;;;15.73;10.80;;;;;;;38.76;33.33;99105.66;4804206;29;20043;-52
2021/07/16 07:52:35;;;;;;;12.52;10.20;;;;;;;37.92;34.31;99106.63;4800727;29;20047;-49
2021/07/16 07:55:01;;;;;;;65.00;14.85;;;;;;;37.97;33.67;99104.00;4803792;29;20582;-54
2021/07/16 07:57:26;;;;;;;98.63;18.52;;;;;;;39.56;31.59;99107.03;4804102;29;20129;-53
2021/07/16 07:59:52;;;;;;;59.70;14.05;;;;;;;39.60;30.92;99110.91;4804456;29;20053;-52
2021/07/16 08:02:18;;;;;;;100.00;18.60;;;;;;;39.68;31.32;99107.69;4804473;29;20047;-53
2021/07/16 08:04:44;;;;;;;22.25;11.05;;;;;;;40.79;29.59;99097.88;4803867;29;20523;-56
2021/07/16 08:07:09;;;;;;;22.15;15.00;;;;;;;41.82;28.15;99103.56;4804156;29;20058;-56
2021/07/16 08:09:35;;;;;;;17.48;10.73;;;;;;;42.75;27.45;99106.13;4803543;29;20046;-51
2021/07/16 08:12:03;;;;;;;11.38;9.95;;;;;;;43.37;26.02;99108.41;4804311;29;20107;-53
2021/07/16 08:14:30;;;;;;;26.58;13.95;;;;;;;43.97;25.39;99110.03;4804359;29;20404;-54
2021/07/16 08:16:55;;;;;;;10.27;9.38;;;;;;;44.36;24.22;99109.22;4803647;29;20109;-54
2021/07/16 08:19:21;;;;;;;14.13;8.90;;;;;;;44.41;23.92;99107.25;4803727;29;20058;-52
2021/07/16 08:21:49;;;;;;;13.77;9.65;;;;;;;44.22;24.30;99112.59;4804028;29;20082;-54
2021/07/16 08:24:15;;;;;;;;;;;;;;;44.86;24.16;99105.22;4804423;29;20647;-52
2021/07/16 08:26:42;;;;;;;25.97;10.47;;;;;;;44.95;23.45;99095.22;4803950;29;19963;-51
2021/07/16 08:29:08;;;;;;;21.13;10.43;;;;;;;43.42;25.15;99094.69;4803083;29;20133;-48
2021/07/16 08:31:34;;;;;;;10.65;8.93;;;;;;;41.45;28.11;99090.06;4801858;29;20096;-55
2021/07/16 08:34:00;;;;;;;190.60;36.10;;;;;;;41.78;27.44;99089.59;4802893;29;20065;-55
2021/07/16 08:36:26;;;;;;;15.88;8.93;;;;;;;41.25;27.17;99084.50;4802378;29;20125;-52
2021/07/16 08:38:51;;;;;;;25.73;12.60;;;;;;;41.69;26.83;99091.22;4807086;29;20058;-53
2021/07/16 08:41:18;;;;;;;164.45;26.33;;;;;;;42.71;25.89;99099.56;4811407;29;20047;-54
2021/07/16 08:43:44;;;;;;;65.72;15.48;;;;;;;41.23;27.51;99090.25;4803180;29;20043;-53
2021/07/16 08:46:10;;;;;;;45.78;13.43;;;;;;;39.77;29.14;99095.34;4803479;29;20054;-53
2021/07/16 08:48:38;;;;;;;21.25;11.13;;;;;;;40.32;28.29;99097.78;4803392;29;20051;-54
2021/07/16 08:51:04;;;;;;;15.57;10.48;;;;;;;42.00;25.65;99083.94;4802418;29;20075;-53
2021/07/16 08:53:30;;;;;;;13.27;9.50;;;;;;;43.32;23.51;99090.09;4803007;29;20047;-52
2021/07/16 08:55:56;;;;;;;16.80;12.00;;;;;;;44.41;22.65;99092.72;4802429;29;20058;-53
2021/07/16 08:58:22;;;;;;;23.40;11.05;;;;;;;45.21;21.56;99104.03;4800831;29;20051;-52
2021/07/16 09:00:48;;;;;;;688.33;83.15;;;;;;;45.72;21.11;99095.94;4801464;29;20062;-50
2021/07/16 09:03:15;;;;;;;677.72;85.22;;;;;;;46.06;20.57;99095.75;4800299;29;20047;-53
2021/07/16 09:05:44;;;;;;;587.95;74.53;;;;;;;46.35;20.05;99093.63;4794024;29;20042;-52
2021/07/16 09:08:14;;;;;;;59.03;15.30;;;;;;;46.76;20.19;99091.78;4793688;29;20496;-53
2021/07/16 09:10:44;;;;;;;25.92;14.43;;;;;;;47.02;19.22;99096.81;4803086;29;20099;-52
2021/07/16 09:13:10;;;;;;;15.05;10.60;;;;;;;46.59;20.34;99099.00;4793621;29;21497;-54
2021/07/16 09:15:36;;;;;;;10.75;8.38;;;;;;;45.22;21.40;99089.19;4796791;29;20099;-52
2021/07/16 09:18:13;;;;;;;19.75;17.35;;;;;;;43.02;23.84;99079.25;4802609;29;20054;-52
2021/07/16 09:20:41;;;;;;;133.90;24.80;;;;;;;41.61;25.73;99077.31;4800836;29;20062;-51
2021/07/16 09:23:18;;;;;;;676.75;115.53;;;;;;;41.63;25.73;99075.94;4817254;29;20304;-54
2021/07/16 09:26:01;;;;;;;200.70;45.58;;;;;;;43.14;23.76;99087.16;4796684;29;20116;-54
2021/07/16 09:28:27;;;;;;;111.65;29.20;;;;;;;44.58;21.66;99090.38;4800270;29;20102;-53
2021/07/16 09:30:55;;;;;;;23.85;11.45;;;;;;;45.63;20.62;99086.75;4801205;29;20048;-54
2021/07/16 09:33:21;;;;;;;19.33;11.55;;;;;;;46.17;18.92;99081.53;4784680;29;20135;-53
2021/07/16 09:35:49;;;;;;;31.45;15.63;;;;;;;46.59;18.69;99094.31;4795806;29;20047;-54
2021/07/16 09:38:17;;;;;;;11.10;9.48;;;;;;;47.02;18.88;99086.63;4803731;29;20073;-55
2021/07/16 09:40:45;;;;;;;12.25;10.07;;;;;;;47.11;18.67;99082.03;4802027;29;20123;-55
2021/07/16 09:43:11;;;;;;;59.92;16.20;;;;;;;47.44;18.29;99084.69;4802297;29;20103;-57
2021/07/16 09:46:04;;;;;;;569.80;97.57;;;;;;;47.63;18.39;99088.16;4802237;29;20042;-53
2021/07/16 09:48:34;;;;;;;243.30;43.55;;;;;;;47.90;18.49;99079.75;4794940;29;20053;-56
2021/07/16 09:51:23;;;;;;;23.17;10.63;;;;;;;48.00;17.75;99084.25;4802795;29;20054;-55
2021/07/16 09:53:52;;;;;;;237.52;37.83;;;;;;;48.05;17.92;99078.63;4802488;29;20058;-54
2021/07/16 09:56:26;;;;;;;22.98;13.77;;;;;;;48.46;17.82;99077.63;4797352;29;20050;-54
2021/07/16 09:59:04;;;;;;;63.03;17.60;;;;;;;48.91;16.90;99075.56;4802261;29;20452;-54
2021/07/16 10:01:31;;;;;;;40.60;16.58;;;;;;;49.11;17.12;99069.47;4800886;29;20715;-53
2021/07/16 10:04:01;;;;;;;53.85;17.58;;;;;;;49.38;16.38;99074.75;4799994;29;20434;-55
2021/07/16 10:06:28;;;;;;;21.52;13.32;;;;;;;49.52;16.47;99058.84;4802640;29;20503;-54
2021/07/16 10:08:54;;;;;;;;;;;;;;;49.37;16.87;99050.19;4802359;29;20578;-56
2021/07/16 10:11:20;;;;;;;16.50;11.65;;;;;;;49.19;17.08;99050.19;4804596;29;20306;-54
2021/07/16 10:13:48;;;;;;;13.90;12.50;;;;;;;49.42;16.65;99048.09;4800773;29;20050;-54
2021/07/16 10:16:14;;;;;;;160.80;34.15;;;;;;;49.65;16.29;99046.03;4799557;29;20068;-55
2021/07/16 10:18:40;;;;;;;11.52;10.65;;;;;;;49.91;15.58;99044.06;4800575;29;20180;-53
2021/07/16 10:21:07;;;;;;;12.05;10.77;;;;;;;50.05;15.42;99047.47;5311770;23;20105;-52
2021/07/16 10:23:33;;;;;;;11.90;10.80;;;;;;;50.27;14.95;99046.47;4820119;29;20525;-55
2021/07/16 10:26:01;;;;;;;12.57;11.38;;;;;;;50.49;15.11;99039.13;4837585;29;20190;-56
2021/07/16 10:28:42;;;;;;;13.95;11.60;;;;;;;50.72;15.02;99034.97;4821492;29;20053;-56
2021/07/16 10:31:31;;;;;;;14.85;11.57;;;;;;;49.29;16.23;99034.44;4812977;29;20050;-56
2021/07/16 10:34:00;;;;;;;9.38;8.20;;;;;;;47.37;17.55;99030.00;4834936;29;20064;-55
2021/07/16 10:36:41;;;;;;;12.77;11.68;;;;;;;45.69;19.29;99016.88;4835826;29;20073;-55
2021/07/16 10:39:09;;;;;;;12.85;11.57;;;;;;;46.41;18.60;99029.16;4826418;29;20164;-54
2021/07/16 10:41:37;;;;;;;12.82;11.65;;;;;;;47.53;17.69;99022.19;4838683;29;20046;-54
2021/07/16 10:44:08;;;;;;;29.55;11.73;;;;;;;48.44;17.03;99017.22;4835640;29;20426;-54
2021/07/16 10:46:36;;;;;;;11.05;10.25;;;;;;;49.01;16.58;99015.34;4831581;29;20133;-54
2021/07/16 10:49:12;;;;;;;11.77;10.68;;;;;;;48.95;16.60;99011.09;4833894;29;20050;-54
2021/07/16 10:51:39;;;;;;;12.30;11.15;;;;;;;49.06;15.82;99009.69;4830505;29;20141;-55
2021/07/16 10:54:10;;;;;;;11.93;10.90;;;;;;;49.07;15.84;99005.78;4834678;29;20079;-51
2021/07/16 10:56:43;;;;;;;11.77;10.88;;;;;;;48.70;16.41;98998.00;4829072;29;20046;-57
2021/07/16 10:59:11;;;;;;;9.73;8.95;;;;;;;48.19;16.87;98993.06;4832900;29;20589;-58
2021/07/16 11:01:39;;;;;;;8.60;7.82;;;;;;;46.11;18.29;98992.00;4828964;29;20079;-58
2021/07/16 11:04:07;;;;;;;15.25;9.43;;;;;;;44.21;20.09;98986.78;4830701;29;20049;-59
2021/07/16 11:06:51;;;;;;;11.30;9.65;;;;;;;42.63;21.61;98986.88;4829645;29;20050;-58
2021/07/16 11:09:37;;;;;;;9.98;9.15;;;;;;;43.25;21.17;98984.72;4826627;29;20506;-57
2021/07/16 11:12:23;;;;;;;10.02;9.32;;;;;;;44.61;19.71;98980.06;4829741;29;20124;-58
2021/07/16 11:14:49;;;;;;;21.35;11.55;;;;;;;45.67;18.86;98975.94;4826638;29;20117;-59
2021/07/16 11:17:28;;;;;;;16.40;11.27;;;;;;;46.48;18.44;98984.75;4834735;29;20571;-59
2021/07/16 11:20:08;;;;;;;24.60;16.83;;;;;;;46.99;18.61;98977.13;4832855;29;20050;-59